sensor_id;sensor_type;location;lat;lon;timestamp;P1;durP1;ratioP1;P2;durP2;ratioP2
78322;SDS011;67583;50.616;-3.404;2023-08-01T00:02:07;10.07;;;3.20;;
78322;SDS011;67583;50.616;-3.404;2023-08-01T00:04:32;12.98;;;3.97;;
78322;SDS011;67583;50.616;-3.404;2023-08-01T00:06:58;13.50;;;3.92;;
78322;SDS011;67583;50.616;-3.404;2023-08-01T00:09:23;10.68;;;3.67;;
78322;SDS011;67583;50.616;-3.404;2023-08-01T00:11:48;9.52;;;4.15;;
78322;SDS011;67583;50.616;-3.404;2023-08-01T00:14:14;13.48;;;3.58;;
78322;SDS011;67583;50.616;-3.404;2023-08-01T00:16:39;6.15;;;3.20;;
78322;SDS011;67583;50.616;-3.404;2023-08-01T00:19:04;11.73;;;3.80;;
78322;SDS011;67583;50.616;-3.404;2023-08-01T00:21:30;9.20;;;3.40;;
78322;SDS011;67583;50.616;-3.404;2023-08-01T00:23:57;14.55;;;3.55;;
78322;SDS011;67583;50.616;-3.404;2023-08-01T00:26:22;8.98;;;3.60;;
78322;SDS011;67583;50.616;-3.404;2023-08-01T00:28:48;14.48;;;3.60;;
78322;SDS011;67583;50.616;-3.404;2023-08-01T00:31:14;14.70;;;4.15;;
78322;SDS011;67583;50.616;-3.404;2023-08-01T00:33:39;6.68;;;3.13;;
78322;SDS011;67583;50.616;-3.404;2023-08-01T00:36:04;18.48;;;4.35;;
78322;SDS011;67583;50.616;-3.404;2023-08-01T00:38:36;9.52;;;3.67;;
78322;SDS011;67583;50.616;-3.404;2023-08-01T00:41:02;15.35;;;3.85;;
78322;SDS011;67583;50.616;-3.404;2023-08-01T00:43:28;9.10;;;3.38;;
78322;SDS011;67583;50.616;-3.404;2023-08-01T00:45:58;13.00;;;4.15;;
78322;SDS011;67583;50.616;-3.404;2023-08-01T00:48:25;9.07;;;3.60;;
78322;SDS011;67583;50.616;-3.404;2023-08-01T00:50:50;7.60;;;3.72;;
78322;SDS011;67583;50.616;-3.404;2023-08-01T00:53:16;12.20;;;3.35;;
78322;SDS011;67583;50.616;-3.404;2023-08-01T00:55:43;10.57;;;3.90;;
78322;SDS011;67583;50.616;-3.404;2023-08-01T00:58:08;9.25;;;4.15;;
78322;SDS011;67583;50.616;-3.404;2023-08-01T01:00:34;11.57;;;3.55;;
78322;SDS011;67583;50.616;-3.404;2023-08-01T01:02:59;11.63;;;4.72;;
78322;SDS011;67583;50.616;-3.404;2023-08-01T01:05:25;16.17;;;3.97;;
78322;SDS011;67583;50.616;-3.404;2023-08-01T01:07:52;9.80;;;3.60;;
78322;SDS011;67583;50.616;-3.404;2023-08-01T01:10:17;13.02;;;4.05;;
78322;SDS011;67583;50.616;-3.404;2023-08-01T01:12:43;15.73;;;4.47;;
78322;SDS011;67583;50.616;-3.404;2023-08-01T01:15:08;9.00;;;3.95;;
78322;SDS011;67583;50.616;-3.404;2023-08-01T01:17:34;17.75;;;3.60;;
78322;SDS011;67583;50.616;-3.404;2023-08-01T01:19:59;12.98;;;3.67;;
78322;SDS011;67583;50.616;-3.404;2023-08-01T01:22:24;12.68;;;3.80;;
78322;SDS011;67583;50.616;-3.404;2023-08-01T01:24:51;8.73;;;3.10;;
78322;SDS011;67583;50.616;-3.404;2023-08-01T01:27:18;12.95;;;4.13;;
78322;SDS011;67583;50.616;-3.404;2023-08-01T01:29:43;13.10;;;4.00;;
78322;SDS011;67583;50.616;-3.404;2023-08-01T01:32:09;9.40;;;3.53;;
78322;SDS011;67583;50.616;-3.404;2023-08-01T01:34:35;13.65;;;4.47;;
78322;SDS011;67583;50.616;-3.404;2023-08-01T01:37:00;11.90;;;3.58;;
78322;SDS011;67583;50.616;-3.404;2023-08-01T01:39:26;16.60;;;3.55;;
78322;SDS011;67583;50.616;-3.404;2023-08-01T01:41:51;9.20;;;3.60;;
78322;SDS011;67583;50.616;-3.404;2023-08-01T01:44:16;11.65;;;4.32;;
78322;SDS011;67583;50.616;-3.404;2023-08-01T01:46:42;13.77;;;5.75;;
78322;SDS011;67583;50.616;-3.404;2023-08-01T01:49:07;7.03;;;3.10;;
78322;SDS011;67583;50.616;-3.404;2023-08-01T01:51:33;14.25;;;3.83;;
78322;SDS011;67583;50.616;-3.404;2023-08-01T01:53:58;8.90;;;3.35;;
78322;SDS011;67583;50.616;-3.404;2023-08-01T01:56:23;7.45;;;3.60;;
78322;SDS011;67583;50.616;-3.404;2023-08-01T01:58:49;8.45;;;3.35;;
78322;SDS011;67583;50.616;-3.404;2023-08-01T02:01:14;14.63;;;4.95;;
78322;SDS011;67583;50.616;-3.404;2023-08-01T02:03:40;11.13;;;3.85;;
78322;SDS011;67583;50.616;-3.404;2023-08-01T02:06:05;9.48;;;3.13;;
78322;SDS011;67583;50.616;-3.404;2023-08-01T02:08:30;9.13;;;3.13;;
78322;SDS011;67583;50.616;-3.404;2023-08-01T02:10:56;10.50;;;3.42;;
78322;SDS011;67583;50.616;-3.404;2023-08-01T02:13:26;17.25;;;3.58;;
78322;SDS011;67583;50.616;-3.404;2023-08-01T02:15:52;9.75;;;4.35;;
78322;SDS011;67583;50.616;-3.404;2023-08-01T02:18:18;11.27;;;3.30;;
78322;SDS011;67583;50.616;-3.404;2023-08-01T02:20:43;10.38;;;3.42;;
78322;SDS011;67583;50.616;-3.404;2023-08-01T02:23:08;14.95;;;3.72;;
78322;SDS011;67583;50.616;-3.404;2023-08-01T02:25:38;12.80;;;3.83;;
78322;SDS011;67583;50.616;-3.404;2023-08-01T02:28:06;10.35;;;4.45;;
78322;SDS011;67583;50.616;-3.404;2023-08-01T02:30:32;8.75;;;2.83;;
78322;SDS011;67583;50.616;-3.404;2023-08-01T02:32:58;9.75;;;3.85;;
78322;SDS011;67583;50.616;-3.404;2023-08-01T02:35:23;10.20;;;4.50;;
78322;SDS011;67583;50.616;-3.404;2023-08-01T02:37:49;6.75;;;2.92;;
78322;SDS011;67583;50.616;-3.404;2023-08-01T02:40:14;15.07;;;3.97;;
78322;SDS011;67583;50.616;-3.404;2023-08-01T02:42:40;21.17;;;4.00;;
78322;SDS011;67583;50.616;-3.404;2023-08-01T02:45:05;14.85;;;3.80;;
78322;SDS011;67583;50.616;-3.404;2023-08-01T02:47:31;14.40;;;4.20;;
78322;SDS011;67583;50.616;-3.404;2023-08-01T02:49:56;11.77;;;3.92;;
78322;SDS011;67583;50.616;-3.404;2023-08-01T02:52:21;19.80;;;3.78;;
78322;SDS011;67583;50.616;-3.404;2023-08-01T02:54:47;15.80;;;4.43;;
78322;SDS011;67583;50.616;-3.404;2023-08-01T02:57:12;10.40;;;3.53;;
78322;SDS011;67583;50.616;-3.404;2023-08-01T02:59:37;9.93;;;2.95;;
78322;SDS011;67583;50.616;-3.404;2023-08-01T03:02:03;12.90;;;3.00;;
78322;SDS011;67583;50.616;-3.404;2023-08-01T03:04:28;10.60;;;2.75;;
78322;SDS011;67583;50.616;-3.404;2023-08-01T03:06:54;7.22;;;2.95;;
78322;SDS011;67583;50.616;-3.404;2023-08-01T03:09:19;7.95;;;3.22;;
78322;SDS011;67583;50.616;-3.404;2023-08-01T03:11:44;11.30;;;3.28;;
78322;SDS011;67583;50.616;-3.404;2023-08-01T03:14:10;8.00;;;3.92;;
78322;SDS011;67583;50.616;-3.404;2023-08-01T03:16:35;10.73;;;3.88;;
78322;SDS011;67583;50.616;-3.404;2023-08-01T03:19:00;15.00;;;3.88;;
78322;SDS011;67583;50.616;-3.404;2023-08-01T03:21:31;8.25;;;2.70;;
78322;SDS011;67583;50.616;-3.404;2023-08-01T03:23:57;9.38;;;3.97;;
78322;SDS011;67583;50.616;-3.404;2023-08-01T03:26:22;14.35;;;3.78;;
78322;SDS011;67583;50.616;-3.404;2023-08-01T03:28:48;10.43;;;2.95;;
78322;SDS011;67583;50.616;-3.404;2023-08-01T03:31:13;14.35;;;4.40;;
78322;SDS011;67583;50.616;-3.404;2023-08-01T03:33:38;11.80;;;3.25;;
78322;SDS011;67583;50.616;-3.404;2023-08-01T03:36:04;11.63;;;3.35;;
78322;SDS011;67583;50.616;-3.404;2023-08-01T03:38:29;10.40;;;3.22;;
78322;SDS011;67583;50.616;-3.404;2023-08-01T03:40:55;14.68;;;4.18;;
78322;SDS011;67583;50.616;-3.404;2023-08-01T03:43:20;14.40;;;4.78;;
78322;SDS011;67583;50.616;-3.404;2023-08-01T03:45:48;15.88;;;3.20;;
78322;SDS011;67583;50.616;-3.404;2023-08-01T03:48:14;12.27;;;3.83;;
78322;SDS011;67583;50.616;-3.404;2023-08-01T03:50:39;12.35;;;3.78;;
78322;SDS011;67583;50.616;-3.404;2023-08-01T03:53:05;8.10;;;3.15;;
78322;SDS011;67583;50.616;-3.404;2023-08-01T03:55:30;12.27;;;3.03;;
78322;SDS011;67583;50.616;-3.404;2023-08-01T03:57:56;10.45;;;2.83;;
78322;SDS011;67583;50.616;-3.404;2023-08-01T04:00:21;10.57;;;2.85;;
78322;SDS011;67583;50.616;-3.404;2023-08-01T04:02:47;11.13;;;3.22;;
78322;SDS011;67583;50.616;-3.404;2023-08-01T04:05:12;13.98;;;4.32;;
78322;SDS011;67583;50.616;-3.404;2023-08-01T04:07:38;10.55;;;3.00;;
78322;SDS011;67583;50.616;-3.404;2023-08-01T04:10:04;9.63;;;3.25;;
78322;SDS011;67583;50.616;-3.404;2023-08-01T04:12:31;9.65;;;3.10;;
78322;SDS011;67583;50.616;-3.404;2023-08-01T04:14:57;10.48;;;2.40;;
78322;SDS011;67583;50.616;-3.404;2023-08-01T04:17:23;10.07;;;3.22;;
78322;SDS011;67583;50.616;-3.404;2023-08-01T04:19:48;8.93;;;2.70;;
78322;SDS011;67583;50.616;-3.404;2023-08-01T04:22:13;7.07;;;3.10;;
78322;SDS011;67583;50.616;-3.404;2023-08-01T04:24:39;7.75;;;2.35;;
78322;SDS011;67583;50.616;-3.404;2023-08-01T04:27:04;9.75;;;2.40;;
78322;SDS011;67583;50.616;-3.404;2023-08-01T04:29:30;9.52;;;2.85;;
78322;SDS011;67583;50.616;-3.404;2023-08-01T04:31:56;8.88;;;2.72;;
78322;SDS011;67583;50.616;-3.404;2023-08-01T04:34:21;10.65;;;2.85;;
78322;SDS011;67583;50.616;-3.404;2023-08-01T04:36:46;8.35;;;2.72;;
78322;SDS011;67583;50.616;-3.404;2023-08-01T04:39:12;7.95;;;3.05;;
78322;SDS011;67583;50.616;-3.404;2023-08-01T04:41:37;10.32;;;4.15;;
78322;SDS011;67583;50.616;-3.404;2023-08-01T04:44:03;7.82;;;2.50;;
78322;SDS011;67583;50.616;-3.404;2023-08-01T04:46:28;8.25;;;3.10;;
78322;SDS011;67583;50.616;-3.404;2023-08-01T04:48:53;12.52;;;3.25;;
78322;SDS011;67583;50.616;-3.404;2023-08-01T04:51:19;9.02;;;3.30;;
78322;SDS011;67583;50.616;-3.404;2023-08-01T04:53:44;8.57;;;2.80;;
78322;SDS011;67583;50.616;-3.404;2023-08-01T04:56:09;8.23;;;3.30;;
78322;SDS011;67583;50.616;-3.404;2023-08-01T04:58:35;11.75;;;2.80;;
78322;SDS011;67583;50.616;-3.404;2023-08-01T05:01:00;7.10;;;3.45;;
78322;SDS011;67583;50.616;-3.404;2023-08-01T05:03:26;13.43;;;3.17;;
78322;SDS011;67583;50.616;-3.404;2023-08-01T05:05:51;11.48;;;3.30;;
78322;SDS011;67583;50.616;-3.404;2023-08-01T05:08:16;18.52;;;3.20;;
78322;SDS011;67583;50.616;-3.404;2023-08-01T05:10:42;12.18;;;3.38;;
78322;SDS011;67583;50.616;-3.404;2023-08-01T05:13:07;9.73;;;4.00;;
78322;SDS011;67583;50.616;-3.404;2023-08-01T05:15:32;9.00;;;3.47;;
78322;SDS011;67583;50.616;-3.404;2023-08-01T05:17:58;10.10;;;3.03;;
78322;SDS011;67583;50.616;-3.404;2023-08-01T05:20:23;7.60;;;3.05;;
78322;SDS011;67583;50.616;-3.404;2023-08-01T05:22:48;5.93;;;2.53;;
78322;SDS011;67583;50.616;-3.404;2023-08-01T05:25:14;8.25;;;2.58;;
78322;SDS011;67583;50.616;-3.404;2023-08-01T05:27:39;10.38;;;4.25;;
78322;SDS011;67583;50.616;-3.404;2023-08-01T05:30:05;14.25;;;4.65;;
78322;SDS011;67583;50.616;-3.404;2023-08-01T05:32:30;7.18;;;2.80;;
78322;SDS011;67583;50.616;-3.404;2023-08-01T05:34:56;10.57;;;3.25;;
78322;SDS011;67583;50.616;-3.404;2023-08-01T05:37:21;9.73;;;3.72;;
78322;SDS011;67583;50.616;-3.404;2023-08-01T05:39:47;7.68;;;2.78;;
78322;SDS011;67583;50.616;-3.404;2023-08-01T05:42:12;9.95;;;3.17;;
78322;SDS011;67583;50.616;-3.404;2023-08-01T05:44:37;10.15;;;2.90;;
78322;SDS011;67583;50.616;-3.404;2023-08-01T05:47:03;8.27;;;3.05;;
78322;SDS011;67583;50.616;-3.404;2023-08-01T05:49:28;10.13;;;2.50;;
78322;SDS011;67583;50.616;-3.404;2023-08-01T05:51:55;9.90;;;3.55;;
78322;SDS011;67583;50.616;-3.404;2023-08-01T05:54:20;13.68;;;3.70;;
78322;SDS011;67583;50.616;-3.404;2023-08-01T05:56:45;11.68;;;3.22;;
78322;SDS011;67583;50.616;-3.404;2023-08-01T05:59:11;11.57;;;2.90;;
78322;SDS011;67583;50.616;-3.404;2023-08-01T06:01:36;9.20;;;3.13;;
78322;SDS011;67583;50.616;-3.404;2023-08-01T06:04:02;12.07;;;3.45;;
78322;SDS011;67583;50.616;-3.404;2023-08-01T06:06:27;10.75;;;3.70;;
78322;SDS011;67583;50.616;-3.404;2023-08-01T06:08:52;12.27;;;3.47;;
78322;SDS011;67583;50.616;-3.404;2023-08-01T06:11:18;13.85;;;3.45;;
78322;SDS011;67583;50.616;-3.404;2023-08-01T06:13:43;9.57;;;3.33;;
78322;SDS011;67583;50.616;-3.404;2023-08-01T06:16:09;13.52;;;4.18;;
78322;SDS011;67583;50.616;-3.404;2023-08-01T06:18:34;11.15;;;3.47;;
78322;SDS011;67583;50.616;-3.404;2023-08-01T06:21:00;10.48;;;3.08;;
78322;SDS011;67583;50.616;-3.404;2023-08-01T06:23:26;10.93;;;3.00;;
78322;SDS011;67583;50.616;-3.404;2023-08-01T06:25:52;13.50;;;3.50;;
78322;SDS011;67583;50.616;-3.404;2023-08-01T06:28:17;15.45;;;3.75;;
78322;SDS011;67583;50.616;-3.404;2023-08-01T06:30:42;13.10;;;3.65;;
78322;SDS011;67583;50.616;-3.404;2023-08-01T06:33:08;7.95;;;3.33;;
78322;SDS011;67583;50.616;-3.404;2023-08-01T06:35:33;9.40;;;2.80;;
78322;SDS011;67583;50.616;-3.404;2023-08-01T06:37:59;7.43;;;3.22;;
78322;SDS011;67583;50.616;-3.404;2023-08-01T06:40:24;9.07;;;3.08;;
78322;SDS011;67583;50.616;-3.404;2023-08-01T06:42:50;5.72;;;2.50;;
78322;SDS011;67583;50.616;-3.404;2023-08-01T06:45:15;6.07;;;2.63;;
78322;SDS011;67583;50.616;-3.404;2023-08-01T06:47:41;6.95;;;2.78;;
78322;SDS011;67583;50.616;-3.404;2023-08-01T06:50:07;6.55;;;2.50;;
78322;SDS011;67583;50.616;-3.404;2023-08-01T06:52:32;7.93;;;2.92;;
78322;SDS011;67583;50.616;-3.404;2023-08-01T06:54:58;5.50;;;2.63;;
78322;SDS011;67583;50.616;-3.404;2023-08-01T06:57:23;9.25;;;2.78;;
78322;SDS011;67583;50.616;-3.404;2023-08-01T06:59:48;9.52;;;2.75;;
78322;SDS011;67583;50.616;-3.404;2023-08-01T07:02:14;6.82;;;3.47;;
78322;SDS011;67583;50.616;-3.404;2023-08-01T07:04:40;9.88;;;2.78;;
78322;SDS011;67583;50.616;-3.404;2023-08-01T07:07:05;6.40;;;2.58;;
78322;SDS011;67583;50.616;-3.404;2023-08-01T07:09:31;5.40;;;2.13;;
78322;SDS011;67583;50.616;-3.404;2023-08-01T07:11:56;8.40;;;2.58;;
78322;SDS011;67583;50.616;-3.404;2023-08-01T07:14:22;6.03;;;2.70;;
78322;SDS011;67583;50.616;-3.404;2023-08-01T07:16:47;4.00;;;2.28;;
78322;SDS011;67583;50.616;-3.404;2023-08-01T07:19:12;7.40;;;2.60;;
78322;SDS011;67583;50.616;-3.404;2023-08-01T07:21:38;7.10;;;2.63;;
78322;SDS011;67583;50.616;-3.404;2023-08-01T07:24:04;8.50;;;2.67;;
78322;SDS011;67583;50.616;-3.404;2023-08-01T07:26:29;5.25;;;2.50;;
78322;SDS011;67583;50.616;-3.404;2023-08-01T07:28:55;6.65;;;2.13;;
78322;SDS011;67583;50.616;-3.404;2023-08-01T07:31:20;7.80;;;2.67;;
78322;SDS011;67583;50.616;-3.404;2023-08-01T07:33:46;7.38;;;2.72;;
78322;SDS011;67583;50.616;-3.404;2023-08-01T07:36:11;5.35;;;2.53;;
78322;SDS011;67583;50.616;-3.404;2023-08-01T07:38:36;6.53;;;3.05;;
78322;SDS011;67583;50.616;-3.404;2023-08-01T07:41:03;8.35;;;2.60;;
78322;SDS011;67583;50.616;-3.404;2023-08-01T07:43:29;6.65;;;2.53;;
78322;SDS011;67583;50.616;-3.404;2023-08-01T07:45:55;9.95;;;3.03;;
78322;SDS011;67583;50.616;-3.404;2023-08-01T07:48:21;7.18;;;2.90;;
78322;SDS011;67583;50.616;-3.404;2023-08-01T07:50:46;7.30;;;2.30;;
78322;SDS011;67583;50.616;-3.404;2023-08-01T07:53:12;7.18;;;3.10;;
78322;SDS011;67583;50.616;-3.404;2023-08-01T07:55:37;8.48;;;2.75;;
78322;SDS011;67583;50.616;-3.404;2023-08-01T07:58:03;5.63;;;2.58;;
78322;SDS011;67583;50.616;-3.404;2023-08-01T08:00:29;7.80;;;2.83;;
78322;SDS011;67583;50.616;-3.404;2023-08-01T08:02:54;5.75;;;2.28;;
78322;SDS011;67583;50.616;-3.404;2023-08-01T08:05:19;36.88;;;3.72;;
78322;SDS011;67583;50.616;-3.404;2023-08-01T08:07:45;10.05;;;3.45;;
78322;SDS011;67583;50.616;-3.404;2023-08-01T08:10:10;6.60;;;2.60;;
78322;SDS011;67583;50.616;-3.404;2023-08-01T08:12:35;4.90;;;2.17;;
78322;SDS011;67583;50.616;-3.404;2023-08-01T08:15:01;7.55;;;2.70;;
78322;SDS011;67583;50.616;-3.404;2023-08-01T08:17:27;8.45;;;2.60;;
78322;SDS011;67583;50.616;-3.404;2023-08-01T08:19:52;6.97;;;2.80;;
78322;SDS011;67583;50.616;-3.404;2023-08-01T08:22:17;8.70;;;3.25;;
78322;SDS011;67583;50.616;-3.404;2023-08-01T08:24:43;5.70;;;2.47;;
78322;SDS011;67583;50.616;-3.404;2023-08-01T08:27:08;7.97;;;3.20;;
78322;SDS011;67583;50.616;-3.404;2023-08-01T08:29:34;10.40;;;3.70;;
78322;SDS011;67583;50.616;-3.404;2023-08-01T08:31:59;7.70;;;3.13;;
78322;SDS011;67583;50.616;-3.404;2023-08-01T08:34:25;6.25;;;2.55;;
78322;SDS011;67583;50.616;-3.404;2023-08-01T08:36:50;6.88;;;2.50;;
78322;SDS011;67583;50.616;-3.404;2023-08-01T08:39:17;6.82;;;2.72;;
78322;SDS011;67583;50.616;-3.404;2023-08-01T08:41:47;8.23;;;2.45;;
78322;SDS011;67583;50.616;-3.404;2023-08-01T08:44:15;6.40;;;2.60;;
78322;SDS011;67583;50.616;-3.404;2023-08-01T08:46:51;8.50;;;3.03;;
78322;SDS011;67583;50.616;-3.404;2023-08-01T08:49:17;11.23;;;3.20;;
78322;SDS011;67583;50.616;-3.404;2023-08-01T08:51:45;7.22;;;2.78;;
78322;SDS011;67583;50.616;-3.404;2023-08-01T08:54:11;7.60;;;2.88;;
78322;SDS011;67583;50.616;-3.404;2023-08-01T08:56:38;6.60;;;2.65;;
78322;SDS011;67583;50.616;-3.404;2023-08-01T08:59:05;9.88;;;4.03;;
78322;SDS011;67583;50.616;-3.404;2023-08-01T09:01:32;9.57;;;3.42;;
78322;SDS011;67583;50.616;-3.404;2023-08-01T09:03:58;11.15;;;3.20;;
78322;SDS011;67583;50.616;-3.404;2023-08-01T09:06:34;18.63;;;3.50;;
78322;SDS011;67583;50.616;-3.404;2023-08-01T09:09:03;14.25;;;3.10;;
78322;SDS011;67583;50.616;-3.404;2023-08-01T09:12:05;7.07;;;3.10;;
78322;SDS011;67583;50.616;-3.404;2023-08-01T09:14:23;7.63;;;3.45;;
78322;SDS011;67583;50.616;-3.404;2023-08-01T09:16:49;8.88;;;2.83;;
78322;SDS011;67583;50.616;-3.404;2023-08-01T09:19:21;6.82;;;3.45;;
78322;SDS011;67583;50.616;-3.404;2023-08-01T09:21:48;7.57;;;2.90;;
78322;SDS011;67583;50.616;-3.404;2023-08-01T09:24:14;9.93;;;3.38;;
78322;SDS011;67583;50.616;-3.404;2023-08-01T09:26:41;13.13;;;4.18;;
78322;SDS011;67583;50.616;-3.404;2023-08-01T09:29:07;7.57;;;3.50;;
78322;SDS011;67583;50.616;-3.404;2023-08-01T09:31:34;9.40;;;3.70;;
78322;SDS011;67583;50.616;-3.404;2023-08-01T09:34:01;10.88;;;3.67;;
78322;SDS011;67583;50.616;-3.404;2023-08-01T09:36:30;9.57;;;3.63;;
78322;SDS011;67583;50.616;-3.404;2023-08-01T09:39:00;8.43;;;3.17;;
78322;SDS011;67583;50.616;-3.404;2023-08-01T09:41:26;10.50;;;3.53;;
78322;SDS011;67583;50.616;-3.404;2023-08-01T09:43:52;10.98;;;3.33;;
78322;SDS011;67583;50.616;-3.404;2023-08-01T09:46:17;12.50;;;3.92;;
78322;SDS011;67583;50.616;-3.404;2023-08-01T09:48:43;10.25;;;3.67;;
78322;SDS011;67583;50.616;-3.404;2023-08-01T09:51:12;7.35;;;3.38;;
78322;SDS011;67583;50.616;-3.404;2023-08-01T09:53:52;12.68;;;3.83;;
78322;SDS011;67583;50.616;-3.404;2023-08-01T09:56:19;12.32;;;4.45;;
78322;SDS011;67583;50.616;-3.404;2023-08-01T09:58:47;12.38;;;3.90;;
78322;SDS011;67583;50.616;-3.404;2023-08-01T10:01:17;7.10;;;3.70;;
78322;SDS011;67583;50.616;-3.404;2023-08-01T10:03:47;11.57;;;3.53;;
78322;SDS011;67583;50.616;-3.404;2023-08-01T10:06:21;10.68;;;3.63;;
78322;SDS011;67583;50.616;-3.404;2023-08-01T10:08:47;9.68;;;3.53;;
78322;SDS011;67583;50.616;-3.404;2023-08-01T10:11:14;11.38;;;4.13;;
78322;SDS011;67583;50.616;-3.404;2023-08-01T10:13:42;13.13;;;3.83;;
78322;SDS011;67583;50.616;-3.404;2023-08-01T10:16:09;7.97;;;3.03;;
78322;SDS011;67583;50.616;-3.404;2023-08-01T10:18:34;8.25;;;3.13;;
78322;SDS011;67583;50.616;-3.404;2023-08-01T10:21:02;4.65;;;2.72;;
78322;SDS011;67583;50.616;-3.404;2023-08-01T10:23:28;9.70;;;3.30;;
78322;SDS011;67583;50.616;-3.404;2023-08-01T10:25:54;4.88;;;3.30;;
78322;SDS011;67583;50.616;-3.404;2023-08-01T10:28:30;9.48;;;3.03;;
78322;SDS011;67583;50.616;-3.404;2023-08-01T10:33:37;5.95;;;2.92;;
78322;SDS011;67583;50.616;-3.404;2023-08-01T10:38:52;6.90;;;3.03;;
78322;SDS011;67583;50.616;-3.404;2023-08-01T10:41:26;9.73;;;3.15;;
78322;SDS011;67583;50.616;-3.404;2023-08-01T10:43:52;6.20;;;3.10;;
78322;SDS011;67583;50.616;-3.404;2023-08-01T10:46:29;6.25;;;3.17;;
78322;SDS011;67583;50.616;-3.404;2023-08-01T10:48:54;8.55;;;3.90;;
78322;SDS011;67583;50.616;-3.404;2023-08-01T10:51:19;6.47;;;3.10;;
78322;SDS011;67583;50.616;-3.404;2023-08-01T10:53:45;7.78;;;2.65;;
78322;SDS011;67583;50.616;-3.404;2023-08-01T10:56:20;8.35;;;3.72;;
78322;SDS011;67583;50.616;-3.404;2023-08-01T10:58:46;7.20;;;3.10;;
78322;SDS011;67583;50.616;-3.404;2023-08-01T11:01:12;7.53;;;3.50;;
78322;SDS011;67583;50.616;-3.404;2023-08-01T11:03:38;7.75;;;3.17;;
78322;SDS011;67583;50.616;-3.404;2023-08-01T11:06:04;5.55;;;2.50;;
78322;SDS011;67583;50.616;-3.404;2023-08-01T11:08:34;6.10;;;2.78;;
78322;SDS011;67583;50.616;-3.404;2023-08-01T11:11:00;11.52;;;3.63;;
78322;SDS011;67583;50.616;-3.404;2023-08-01T11:13:25;6.60;;;2.65;;
78322;SDS011;67583;50.616;-3.404;2023-08-01T11:15:51;5.25;;;2.80;;
78322;SDS011;67583;50.616;-3.404;2023-08-01T11:18:18;5.53;;;2.80;;
78322;SDS011;67583;50.616;-3.404;2023-08-01T11:20:43;7.10;;;2.95;;
78322;SDS011;67583;50.616;-3.404;2023-08-01T11:23:09;4.28;;;2.10;;
78322;SDS011;67583;50.616;-3.404;2023-08-01T11:25:37;4.90;;;2.22;;
78322;SDS011;67583;50.616;-3.404;2023-08-01T11:28:22;2.95;;;1.88;;
78322;SDS011;67583;50.616;-3.404;2023-08-01T11:30:49;6.20;;;1.75;;
78322;SDS011;67583;50.616;-3.404;2023-08-01T11:33:18;3.88;;;1.80;;
78322;SDS011;67583;50.616;-3.404;2023-08-01T11:35:46;3.03;;;1.63;;
78322;SDS011;67583;50.616;-3.404;2023-08-01T11:38:14;3.47;;;2.08;;
78322;SDS011;67583;50.616;-3.404;2023-08-01T11:40:40;5.65;;;2.17;;
78322;SDS011;67583;50.616;-3.404;2023-08-01T11:43:05;4.22;;;2.00;;
78322;SDS011;67583;50.616;-3.404;2023-08-01T11:45:31;3.10;;;1.85;;
78322;SDS011;67583;50.616;-3.404;2023-08-01T11:47:56;2.08;;;1.50;;
78322;SDS011;67583;50.616;-3.404;2023-08-01T11:50:22;4.28;;;1.70;;
78322;SDS011;67583;50.616;-3.404;2023-08-01T11:52:49;3.13;;;1.88;;
78322;SDS011;67583;50.616;-3.404;2023-08-01T11:58:27;4.13;;;1.77;;
78322;SDS011;67583;50.616;-3.404;2023-08-01T12:00:39;4.85;;;2.25;;
78322;SDS011;67583;50.616;-3.404;2023-08-01T12:03:08;2.85;;;1.45;;
78322;SDS011;67583;50.616;-3.404;2023-08-01T12:05:38;2.42;;;1.30;;
78322;SDS011;67583;50.616;-3.404;2023-08-01T12:08:12;3.35;;;1.95;;
78322;SDS011;67583;50.616;-3.404;2023-08-01T12:10:40;2.70;;;1.65;;
78322;SDS011;67583;50.616;-3.404;2023-08-01T12:13:07;3.85;;;1.80;;
78322;SDS011;67583;50.616;-3.404;2023-08-01T12:15:47;2.10;;;1.40;;
78322;SDS011;67583;50.616;-3.404;2023-08-01T12:18:26;4.32;;;1.60;;
78322;SDS011;67583;50.616;-3.404;2023-08-01T12:20:53;4.05;;;1.80;;
78322;SDS011;67583;50.616;-3.404;2023-08-01T12:23:18;3.45;;;1.73;;
78322;SDS011;67583;50.616;-3.404;2023-08-01T12:25:44;2.40;;;1.50;;
78322;SDS011;67583;50.616;-3.404;2023-08-01T12:28:11;2.00;;;1.40;;
78322;SDS011;67583;50.616;-3.404;2023-08-01T12:30:39;5.38;;;2.10;;
78322;SDS011;67583;50.616;-3.404;2023-08-01T12:33:05;2.67;;;1.73;;
78322;SDS011;67583;50.616;-3.404;2023-08-01T12:35:31;2.47;;;1.48;;
78322;SDS011;67583;50.616;-3.404;2023-08-01T12:37:56;3.50;;;1.50;;
78322;SDS011;67583;50.616;-3.404;2023-08-01T12:40:22;3.17;;;1.48;;
78322;SDS011;67583;50.616;-3.404;2023-08-01T12:42:47;3.97;;;1.77;;
78322;SDS011;67583;50.616;-3.404;2023-08-01T12:45:12;2.05;;;1.33;;
78322;SDS011;67583;50.616;-3.404;2023-08-01T12:47:38;5.30;;;2.25;;
78322;SDS011;67583;50.616;-3.404;2023-08-01T12:50:04;2.75;;;1.45;;
78322;SDS011;67583;50.616;-3.404;2023-08-01T12:52:30;2.00;;;1.20;;
78322;SDS011;67583;50.616;-3.404;2023-08-01T12:54:55;3.50;;;1.92;;
78322;SDS011;67583;50.616;-3.404;2023-08-01T12:57:20;3.33;;;1.50;;
78322;SDS011;67583;50.616;-3.404;2023-08-01T12:59:46;4.07;;;1.65;;
78322;SDS011;67583;50.616;-3.404;2023-08-01T13:02:12;2.97;;;1.42;;
78322;SDS011;67583;50.616;-3.404;2023-08-01T13:04:37;4.00;;;1.80;;
78322;SDS011;67583;50.616;-3.404;2023-08-01T13:07:03;2.97;;;1.50;;
78322;SDS011;67583;50.616;-3.404;2023-08-01T13:09:29;3.67;;;1.52;;
78322;SDS011;67583;50.616;-3.404;2023-08-01T13:11:54;3.40;;;2.08;;
78322;SDS011;67583;50.616;-3.404;2023-08-01T13:14:21;2.55;;;1.60;;
78322;SDS011;67583;50.616;-3.404;2023-08-01T13:16:46;3.45;;;1.60;;
78322;SDS011;67583;50.616;-3.404;2023-08-01T13:19:12;3.47;;;1.58;;
78322;SDS011;67583;50.616;-3.404;2023-08-01T13:21:38;4.63;;;1.65;;
78322;SDS011;67583;50.616;-3.404;2023-08-01T13:24:03;3.83;;;1.60;;
78322;SDS011;67583;50.616;-3.404;2023-08-01T13:26:33;3.92;;;1.65;;
78322;SDS011;67583;50.616;-3.404;2023-08-01T13:28:58;2.35;;;1.42;;
78322;SDS011;67583;50.616;-3.404;2023-08-01T13:31:24;5.63;;;2.03;;
78322;SDS011;67583;50.616;-3.404;2023-08-01T13:33:50;5.63;;;1.85;;
78322;SDS011;67583;50.616;-3.404;2023-08-01T13:36:17;5.45;;;1.83;;
78322;SDS011;67583;50.616;-3.404;2023-08-01T13:38:43;3.72;;;1.70;;
78322;SDS011;67583;50.616;-3.404;2023-08-01T13:41:09;5.13;;;1.70;;
78322;SDS011;67583;50.616;-3.404;2023-08-01T13:43:34;2.78;;;1.60;;
78322;SDS011;67583;50.616;-3.404;2023-08-01T13:46:00;4.28;;;1.63;;
78322;SDS011;67583;50.616;-3.404;2023-08-01T13:48:25;2.75;;;1.50;;
78322;SDS011;67583;50.616;-3.404;2023-08-01T13:50:51;4.90;;;1.40;;
78322;SDS011;67583;50.616;-3.404;2023-08-01T13:53:16;3.05;;;1.50;;
78322;SDS011;67583;50.616;-3.404;2023-08-01T13:55:42;1.95;;;1.52;;
78322;SDS011;67583;50.616;-3.404;2023-08-01T13:58:07;3.22;;;1.48;;
78322;SDS011;67583;50.616;-3.404;2023-08-01T14:00:33;3.58;;;1.73;;
78322;SDS011;67583;50.616;-3.404;2023-08-01T14:02:58;2.90;;;1.52;;
78322;SDS011;67583;50.616;-3.404;2023-08-01T14:05:25;4.00;;;1.70;;
78322;SDS011;67583;50.616;-3.404;2023-08-01T14:07:51;4.00;;;1.60;;
78322;SDS011;67583;50.616;-3.404;2023-08-01T14:10:16;4.00;;;1.58;;
78322;SDS011;67583;50.616;-3.404;2023-08-01T14:12:42;2.47;;;1.30;;
78322;SDS011;67583;50.616;-3.404;2023-08-01T14:15:08;2.97;;;1.40;;
78322;SDS011;67583;50.616;-3.404;2023-08-01T14:17:34;6.25;;;2.08;;
78322;SDS011;67583;50.616;-3.404;2023-08-01T14:19:59;3.50;;;1.40;;
78322;SDS011;67583;50.616;-3.404;2023-08-01T14:22:24;3.15;;;1.45;;
78322;SDS011;67583;50.616;-3.404;2023-08-01T14:24:50;3.75;;;1.63;;
78322;SDS011;67583;50.616;-3.404;2023-08-01T14:27:15;2.90;;;1.42;;
78322;SDS011;67583;50.616;-3.404;2023-08-01T14:29:41;2.15;;;1.90;;
78322;SDS011;67583;50.616;-3.404;2023-08-01T14:32:06;6.68;;;1.60;;
78322;SDS011;67583;50.616;-3.404;2023-08-01T14:34:32;5.35;;;1.50;;